Time;durP1;ratioP1;P1;durP2;ratioP2;P2;SDS_P1;SDS_P2;PMS_P1;PMS_P2;Temp;Humidity;BMP_temperature;BMP_pressure;BME280_temperature;BME280_humidity;BME280_pressure;Samples;Min_cycle;Max_cycle;Signal;HPM_P1;HPM_P2
2021/12/27 00:00:32;;;;;;;20.73;7.82;;;2.70;99.90;;;;;;5071264;28;20431;-70
2021/12/27 00:03:00;;;;;;;25.08;8.93;;;2.70;99.90;;;;;;5072477;28;20040;-69
2021/12/27 00:05:26;;;;;;;25.45;10.13;;;2.70;99.90;;;;;;5068020;28;20059;-69
2021/12/27 00:07:54;;;;;;;21.77;9.02;;;2.70;99.90;;;;;;5072583;28;20036;-69
2021/12/27 00:10:21;;;;;;;26.70;9.38;;;2.60;99.90;;;;;;5071536;28;20036;-70
2021/12/27 00:12:48;;;;;;;21.58;8.50;;;2.70;99.90;;;;;;5072580;28;20040;-70
2021/12/27 00:15:14;;;;;;;24.67;9.50;;;2.70;99.90;;;;;;5072103;28;20480;-69
2021/12/27 00:17:43;;;;;;;28.08;9.10;;;2.70;99.90;;;;;;5072361;28;20036;-70
2021/12/27 00:20:12;;;;;;;21.73;9.13;;;2.70;99.90;;;;;;5070185;28;20488;-70
2021/12/27 00:22:38;;;;;;;28.52;10.05;;;2.80;99.90;;;;;;5072217;28;20037;-70
2021/12/27 00:25:05;;;;;;;23.50;9.02;;;2.80;99.90;;;;;;5071601;28;20028;-70
2021/12/27 00:27:31;;;;;;;28.92;9.90;;;2.70;99.90;;;;;;5071950;28;20098;-70
2021/12/27 00:29:56;;;;;;;29.00;10.00;;;2.70;99.90;;;;;;5071643;28;20032;-70
2021/12/27 00:32:22;;;;;;;28.77;9.50;;;2.80;99.90;;;;;;5070572;28;20473;-70
2021/12/27 00:34:48;;;;;;;24.52;10.25;;;2.80;99.90;;;;;;5072126;28;20044;-70
2021/12/27 00:37:13;;;;;;;32.55;9.80;;;2.80;99.90;;;;;;5071578;28;20031;-70
2021/12/27 00:39:39;;;;;;;25.25;10.07;;;2.80;99.90;;;;;;5071844;28;20058;-70
2021/12/27 00:42:05;;;;;;;22.00;9.43;;;2.80;99.90;;;;;;5070134;28;20389;-71
2021/12/27 00:44:31;;;;;;;25.52;9.05;;;2.80;99.90;;;;;;5071605;28;20385;-70
2021/12/27 00:46:57;;;;;;;19.63;8.90;;;2.80;99.90;;;;;;5072150;28;20071;-70
2021/12/27 00:49:23;;;;;;;22.77;9.35;;;2.80;99.90;;;;;;5071064;28;20029;-70
2021/12/27 00:51:48;;;;;;;27.05;10.70;;;2.80;99.90;;;;;;5071791;28;20561;-70
2021/12/27 00:54:14;;;;;;;30.92;9.60;;;2.80;99.90;;;;;;5070995;28;20032;-70
2021/12/27 00:56:40;;;;;;;21.42;9.07;;;2.90;99.90;;;;;;5071781;28;20071;-70
2021/12/27 00:59:06;;;;;;;23.38;8.93;;;2.90;99.90;;;;;;5070798;28;20028;-71
2021/12/27 01:01:32;;;;;;;26.30;9.57;;;2.80;99.90;;;;;;5071328;28;20040;-70
2021/12/27 01:03:59;;;;;;;19.52;8.55;;;2.80;99.90;;;;;;5070329;28;20033;-70
2021/12/27 01:06:25;;;;;;;21.98;9.88;;;2.80;99.90;;;;;;5071251;28;20690;-70
2021/12/27 01:08:52;;;;;;;28.20;9.75;;;2.90;99.90;;;;;;5070020;28;20036;-70
2021/12/27 01:16:46;;;;;;;27.38;10.13;;;2.90;99.90;;;;;;5065484;28;20396;-70
2021/12/27 01:19:12;;;;;;;19.95;8.98;;;2.90;99.90;;;;;;5069286;28;20032;-70
2021/12/27 01:21:38;;;;;;;24.38;9.32;;;2.90;99.90;;;;;;5070875;28;20484;-70
2021/12/27 01:24:04;;;;;;;24.35;9.05;;;2.90;99.90;;;;;;5069172;28;20037;-71
2021/12/27 01:26:30;;;;;;;19.48;8.98;;;2.90;99.90;;;;;;5069518;28;20059;-70
2021/12/27 01:28:57;;;;;;;22.67;8.38;;;3.00;99.90;;;;;;5070809;28;20043;-70
2021/12/27 01:31:24;;;;;;;25.25;9.65;;;3.00;99.90;;;;;;5069164;28;20036;-70
2021/12/27 01:33:50;;;;;;;20.73;8.05;;;3.00;99.90;;;;;;5071018;28;20059;-70
2021/12/27 01:36:16;;;;;;;26.00;10.15;;;3.00;99.90;;;;;;5070525;28;20060;-71
2021/12/27 01:38:42;;;;;;;27.83;9.70;;;3.00;99.90;;;;;;5068321;28;20501;-70
2021/12/27 01:41:13;;;;;;;21.75;9.60;;;3.00;99.90;;;;;;5068606;28;20039;-71
2021/12/27 01:43:40;;;;;;;20.85;9.25;;;3.00;99.90;;;;;;5069499;28;20107;-70
2021/12/27 01:46:07;;;;;;;22.95;8.75;;;3.00;99.90;;;;;;5069024;28;20055;-71
2021/12/27 01:48:38;;;;;;;17.83;8.18;;;3.00;99.90;;;;;;5070554;28;20167;-70
2021/12/27 01:51:05;;;;;;;;;;;3.00;99.90;;;;;;5070126;28;20040;-70
2021/12/27 01:53:33;;;;;;;21.05;9.13;;;3.10;99.90;;;;;;5068599;28;19944;-70
2021/12/27 01:56:00;;;;;;;25.83;8.80;;;3.00;99.90;;;;;;5069215;28;20032;-70
2021/12/27 01:58:26;;;;;;;15.95;7.32;;;3.10;99.90;;;;;;5068620;28;20381;-70
2021/12/27 02:00:55;;;;;;;17.48;9.05;;;3.10;99.90;;;;;;5070367;28;20519;-70
2021/12/27 02:03:23;;;;;;;17.48;8.32;;;3.10;99.90;;;;;;5068786;28;21049;-69
2021/12/27 02:05:49;;;;;;;19.80;8.55;;;3.00;99.90;;;;;;5070196;28;20407;-69
2021/12/27 02:08:15;;;;;;;17.52;8.27;;;3.10;99.90;;;;;;5069791;28;20025;-70
2021/12/27 02:10:41;;;;;;;20.33;8.45;;;3.10;99.90;;;;;;5070076;28;20028;-69
2021/12/27 02:13:09;;;;;;;18.70;7.88;;;3.20;99.90;;;;;;5069526;28;20049;-70
2021/12/27 02:15:35;;;;;;;20.85;8.25;;;3.20;99.90;;;;;;5070088;28;20121;-69
2021/12/27 02:18:00;;;;;;;21.40;8.25;;;3.20;99.90;;;;;;5070044;28;20607;-73
2021/12/27 02:20:29;;;;;;;17.08;8.27;;;3.20;99.90;;;;;;5065595;28;20039;-69
2021/12/27 02:23:00;;;;;;;19.55;8.75;;;3.20;99.90;;;;;;5062170;28;20388;-69
2021/12/27 02:25:27;;;;;;;23.33;9.00;;;3.20;99.90;;;;;;5069675;28;20545;-70
2021/12/27 02:27:53;;;;;;;19.33;8.32;;;3.20;99.90;;;;;;5069767;28;20419;-69
2021/12/27 02:30:21;;;;;;;18.05;9.10;;;3.20;99.90;;;;;;5069140;28;20854;-69
2021/12/27 02:32:53;;;;;;;20.17;8.20;;;3.20;99.90;;;;;;5069728;28;20071;-69
2021/12/27 02:35:21;;;;;;;20.73;9.88;;;3.20;99.90;;;;;;5065683;28;20075;-70
2021/12/27 02:37:47;;;;;;;24.50;8.57;;;3.20;99.90;;;;;;5069597;28;20036;-70
2021/12/27 02:40:13;;;;;;;23.23;8.50;;;3.20;99.90;;;;;;5069238;28;20591;-70
2021/12/27 02:43:01;;;;;;;31.02;10.48;;;3.20;99.90;;;;;;5069397;28;20028;-69
2021/12/27 02:45:29;;;;;;;26.60;9.98;;;3.20;99.90;;;;;;5066507;28;20580;-69
2021/12/27 02:47:55;;;;;;;29.55;10.90;;;3.30;99.90;;;;;;5069730;28;20033;-69
2021/12/27 02:50:23;;;;;;;34.88;10.85;;;3.30;99.90;;;;;;5067785;28;20037;-70
2021/12/27 02:52:48;;;;;;;27.23;10.55;;;3.30;99.90;;;;;;5065750;28;20032;-69
2021/12/27 02:55:15;;;;;;;25.02;11.27;;;3.30;99.90;;;;;;5069266;28;20031;-69
2021/12/27 02:57:43;;;;;;;31.02;10.85;;;3.30;99.90;;;;;;5069424;28;20040;-69
2021/12/27 03:00:31;;;;;;;23.80;10.38;;;3.30;99.90;;;;;;5068965;28;20035;-70
2021/12/27 03:02:57;;;;;;;29.92;11.50;;;3.30;99.90;;;;;;5067157;28;20025;-69
2021/12/27 03:05:26;;;;;;;30.98;10.75;;;3.30;99.90;;;;;;5069498;28;20027;-69
2021/12/27 03:07:52;;;;;;;26.98;10.88;;;3.30;99.90;;;;;;5069382;28;20036;-69
2021/12/27 03:10:23;;;;;;;37.92;11.82;;;3.40;99.90;;;;;;5068677;28;20099;-69
2021/12/27 03:12:49;;;;;;;42.28;12.85;;;3.30;99.90;;;;;;5066024;28;20104;-69
2021/12/27 03:15:17;;;;;;;36.03;11.10;;;3.40;99.90;;;;;;5063705;28;20036;-69
2021/12/27 03:17:44;;;;;;;33.75;11.20;;;3.40;99.90;;;;;;5068077;28;20609;-69
2021/12/27 03:20:11;;;;;;;34.78;11.32;;;3.40;99.90;;;;;;5068675;28;20419;-69
2021/12/27 03:22:37;;;;;;;34.13;11.32;;;3.50;99.90;;;;;;5069663;28;20039;-69
2021/12/27 03:25:05;;;;;;;27.70;11.27;;;3.50;99.90;;;;;;5068668;28;20111;-70
2021/12/27 03:27:30;;;;;;;36.53;12.95;;;3.50;99.90;;;;;;5069194;28;20041;-69
2021/12/27 03:29:56;;;;;;;38.45;12.68;;;3.50;99.90;;;;;;5069274;28;20035;-68
2021/12/27 03:32:22;;;;;;;36.00;11.70;;;3.50;99.90;;;;;;5067680;28;20064;-69
2021/12/27 03:34:57;;;;;;;33.42;12.27;;;3.50;99.90;;;;;;5068026;28;20052;-69
2021/12/27 03:37:24;;;;;;;36.72;11.98;;;3.60;99.90;;;;;;5065844;28;20444;-69
2021/12/27 03:39:50;;;;;;;44.88;13.10;;;3.50;99.90;;;;;;5067765;28;20033;-69
2021/12/27 03:42:17;;;;;;;38.13;11.95;;;3.60;99.90;;;;;;5067167;28;20033;-69
2021/12/27 03:44:44;;;;;;;32.63;13.18;;;3.50;99.90;;;;;;5069306;28;20046;-69
2021/12/27 03:47:10;;;;;;;44.10;15.15;;;3.60;99.90;;;;;;5068778;28;20111;-69
2021/12/27 03:49:36;;;;;;;38.40;12.18;;;3.60;99.90;;;;;;5068425;28;20120;-69
2021/12/27 03:52:01;;;;;;;35.25;12.65;;;3.60;99.90;;;;;;5067988;28;20470;-74
2021/12/27 03:54:27;;;;;;;35.50;11.35;;;3.60;99.90;;;;;;5067763;28;20039;-69
2021/12/27 03:56:53;;;;;;;37.67;13.60;;;3.60;99.90;;;;;;5068816;28;20039;-69
2021/12/27 03:59:47;;;;;;;34.47;12.57;;;3.50;99.90;;;;;;5067426;28;20136;-69
2021/12/27 04:02:13;;;;;;;43.45;11.80;;;3.60;99.90;;;;;;5071600;28;20028;-69
2021/12/27 04:04:41;;;;;;;35.40;11.30;;;3.60;99.90;;;;;;5072544;28;20127;-68
2021/12/27 04:07:08;;;;;;;28.88;10.88;;;3.60;99.90;;;;;;5070718;28;20040;-69
2021/12/27 04:09:34;;;;;;;29.70;11.35;;;3.70;99.90;;;;;;5072776;28;20051;-68
2021/12/27 04:12:00;;;;;;;32.33;10.75;;;3.60;99.90;;;;;;5072383;28;20036;-69
2021/12/27 04:14:25;;;;;;;27.35;10.30;;;3.70;99.90;;;;;;5071854;28;20036;-68
2021/12/27 04:16:52;;;;;;;24.75;9.80;;;3.70;99.90;;;;;;5072590;28;20394;-68
2021/12/27 04:19:18;;;;;;;24.48;9.77;;;3.70;99.90;;;;;;5071711;28;20028;-68
2021/12/27 04:21:44;;;;;;;19.23;9.05;;;3.70;99.90;;;;;;5072468;28;20028;-68
2021/12/27 04:24:10;;;;;;;24.33;9.07;;;3.70;99.90;;;;;;5071765;28;20059;-69
2021/12/27 04:26:35;;;;;;;19.92;8.68;;;3.70;99.90;;;;;;5072324;28;20041;-69
2021/12/27 04:29:01;;;;;;;22.30;9.15;;;3.80;99.90;;;;;;5072187;28;20059;-68
2021/12/27 04:31:26;;;;;;;26.52;9.50;;;3.80;99.90;;;;;;5071610;28;20127;-68
2021/12/27 04:33:52;;;;;;;24.20;8.02;;;3.80;99.90;;;;;;5070440;28;20066;-68
2021/12/27 04:36:18;;;;;;;24.52;9.02;;;3.80;99.90;;;;;;5071803;28;20119;-69
2021/12/27 04:38:43;;;;;;;23.75;9.00;;;3.80;99.90;;;;;;5070647;28;20044;-69
2021/12/27 04:41:11;;;;;;;22.42;8.02;;;3.70;99.90;;;;;;5071430;28;20050;-69
2021/12/27 04:43:37;;;;;;;28.00;9.48;;;3.80;99.90;;;;;;5071421;28;20024;-69
2021/12/27 04:46:04;;;;;;;26.13;10.02;;;3.80;99.90;;;;;;5071564;28;20120;-70
2021/12/27 04:48:30;;;;;;;26.90;9.15;;;3.80;99.90;;;;;;5070373;28;20045;-68
2021/12/27 04:50:56;;;;;;;22.65;9.23;;;3.80;99.90;;;;;;5071739;28;20037;-69
2021/12/27 04:53:21;;;;;;;23.85;8.18;;;3.80;99.90;;;;;;5069851;28;20043;-68
2021/12/27 04:55:47;;;;;;;21.65;8.52;;;3.80;99.90;;;;;;5070568;28;20103;-68
2021/12/27 04:58:16;;;;;;;23.23;8.40;;;3.80;99.90;;;;;;5071306;28;20052;-68
2021/12/27 05:00:43;;;;;;;27.75;9.05;;;3.90;99.90;;;;;;5066052;28;20132;-68
2021/12/27 05:03:08;;;;;;;25.60;7.68;;;3.90;99.90;;;;;;5069501;28;20036;-70
2021/12/27 05:05:36;;;;;;;20.98;8.32;;;3.90;99.90;;;;;;5071625;28;20047;-68
2021/12/27 05:08:03;;;;;;;22.27;8.02;;;3.90;99.90;;;;;;5070001;28;20051;-68
2021/12/27 05:10:30;;;;;;;32.13;9.35;;;3.90;99.90;;;;;;5071018;28;20112;-68
2021/12/27 05:12:56;;;;;;;23.65;9.25;;;3.90;99.90;;;;;;5071638;28;20039;-68
2021/12/27 05:15:23;;;;;;;23.30;9.60;;;4.00;99.90;;;;;;5070961;28;20488;-68
2021/12/27 05:17:48;;;;;;;25.17;8.57;;;3.90;99.90;;;;;;5070066;28;20400;-68
2021/12/27 05:20:14;;;;;;;28.63;9.52;;;4.00;99.90;;;;;;5070803;28;20028;-69
2021/12/27 05:22:41;;;;;;;35.88;10.52;;;4.00;99.90;;;;;;5070035;28;20049;-68
2021/12/27 05:25:10;;;;;;;34.67;10.43;;;4.00;99.90;;;;;;5069707;28;20107;-69
2021/12/27 05:27:40;;;;;;;40.13;10.63;;;4.00;99.90;;;;;;5070280;28;20032;-69
2021/12/27 05:30:07;;;;;;;32.33;11.73;;;4.00;99.90;;;;;;5069610;28;20123;-68
2021/12/27 05:32:34;;;;;;;32.03;9.13;;;4.00;99.90;;;;;;5071628;28;20037;-68
2021/12/27 05:34:59;;;;;;;32.00;10.00;;;4.00;99.90;;;;;;5070020;28;20123;-68
2021/12/27 05:37:25;;;;;;;28.75;10.73;;;4.10;99.90;;;;;;5069631;28;20112;-68
2021/12/27 05:39:50;;;;;;;33.53;11.32;;;4.10;99.90;;;;;;5070614;28;20627;-68
2021/12/27 05:42:16;;;;;;;41.05;12.18;;;4.10;99.90;;;;;;5069083;28;20093;-68
2021/12/27 05:44:42;;;;;;;32.95;9.48;;;4.10;99.90;;;;;;5070732;28;20056;-68
2021/12/27 05:47:07;;;;;;;46.13;11.10;;;4.10;99.90;;;;;;5070435;28;20047;-69
2021/12/27 05:49:33;;;;;;;29.27;10.45;;;4.10;99.90;;;;;;5070684;28;20074;-68
2021/12/27 05:51:58;;;;;;;33.95;10.27;;;4.10;99.90;;;;;;5069214;28;20112;-68
2021/12/27 05:54:24;;;;;;;36.60;10.48;;;4.10;99.90;;;;;;5070149;28;20083;-68
2021/12/27 05:56:50;;;;;;;44.67;11.77;;;4.10;99.90;;;;;;5070664;28;20033;-68
2021/12/27 05:59:16;;;;;;;29.92;9.98;;;4.10;99.90;;;;;;5069733;28;20039;-68
2021/12/27 06:01:43;;;;;;;36.10;10.60;;;4.20;99.90;;;;;;5068888;28;20032;-68
2021/12/27 06:04:09;;;;;;;38.60;11.27;;;4.10;99.90;;;;;;5070138;28;20028;-69
2021/12/27 06:06:36;;;;;;;35.50;11.70;;;4.20;99.90;;;;;;5070588;28;20029;-68
2021/12/27 06:09:02;;;;;;;54.55;12.93;;;4.10;99.90;;;;;;5070393;28;20037;-68
2021/12/27 06:11:28;;;;;;;40.95;12.60;;;4.20;99.90;;;;;;5069709;28;20086;-68
2021/12/27 06:13:53;;;;;;;34.90;11.40;;;4.20;99.90;;;;;;5068858;28;20048;-68
2021/12/27 06:16:20;;;;;;;37.63;10.55;;;4.20;99.90;;;;;;5069926;28;20036;-69
2021/12/27 06:18:46;;;;;;;34.75;11.75;;;4.20;99.90;;;;;;5070149;28;20036;-68
2021/12/27 06:21:11;;;;;;;47.35;12.75;;;4.20;99.90;;;;;;5069285;28;20038;-68
2021/12/27 06:23:37;;;;;;;54.05;13.07;;;4.20;99.90;;;;;;5069993;28;20554;-68
2021/12/27 06:26:03;;;;;;;49.45;12.10;;;4.20;99.90;;;;;;5070187;28;20043;-68
2021/12/27 06:28:29;;;;;;;35.97;11.75;;;4.20;99.90;;;;;;5068240;28;20033;-68
2021/12/27 06:30:55;;;;;;;51.05;13.63;;;4.20;99.90;;;;;;5069956;28;20036;-68
2021/12/27 06:33:20;;;;;;;42.92;12.25;;;4.30;99.90;;;;;;5069576;28;20119;-68
2021/12/27 06:35:46;;;;;;;45.67;13.60;;;4.30;99.90;;;;;;5070005;28;20040;-68
2021/12/27 06:38:11;;;;;;;51.38;13.63;;;4.30;99.90;;;;;;5068339;28;20024;-69
2021/12/27 06:40:37;;;;;;;45.85;12.60;;;4.30;99.90;;;;;;5069934;28;20037;-68
2021/12/27 06:43:03;;;;;;;38.33;12.85;;;4.30;99.90;;;;;;5070209;28;20119;-68
2021/12/27 06:45:28;;;;;;;53.53;14.10;;;4.30;99.90;;;;;;5068651;28;20032;-69
2021/12/27 06:47:54;;;;;;;60.80;14.07;;;4.40;99.90;;;;;;5070409;28;20120;-68
2021/12/27 06:50:21;;;;;;;43.25;12.77;;;4.40;99.90;;;;;;5068002;28;20040;-68
2021/12/27 06:52:47;;;;;;;51.35;13.18;;;4.40;99.90;;;;;;5069805;28;20052;-68
2021/12/27 06:55:13;;;;;;;49.83;13.43;;;4.40;99.90;;;;;;5069390;28;20117;-69
2021/12/27 06:57:39;;;;;;;68.28;15.35;;;4.50;99.90;;;;;;5069855;28;20118;-68
2021/12/27 07:00:08;;;;;;;57.30;12.65;;;4.50;99.90;;;;;;5069188;28;20492;-68
2021/12/27 07:02:33;;;;;;;51.42;13.38;;;4.50;99.90;;;;;;5065500;28;20063;-68
2021/12/27 07:04:59;;;;;;;58.50;13.75;;;4.50;99.90;;;;;;5069724;28;20561;-68
2021/12/27 07:07:25;;;;;;;57.40;14.02;;;4.50;99.90;;;;;;5069149;28;20032;-68
2021/12/27 07:09:51;;;;;;;52.88;14.07;;;4.50;99.90;;;;;;5069305;28;20137;-68
2021/12/27 07:12:17;;;;;;;58.28;13.20;;;4.50;99.90;;;;;;5067750;28;20079;-68
2021/12/27 07:14:42;;;;;;;49.15;12.93;;;4.50;99.90;;;;;;5069645;28;20045;-68
2021/12/27 07:17:09;;;;;;;67.03;14.00;;;4.60;99.90;;;;;;5067682;28;20055;-69
2021/12/27 07:19:34;;;;;;;49.83;13.15;;;4.50;99.90;;;;;;5068251;28;20400;-68
2021/12/27 07:22:00;;;;;;;64.13;15.13;;;4.50;99.90;;;;;;5067926;28;20089;-68
2021/12/27 07:24:26;;;;;;;51.15;13.75;;;4.60;99.90;;;;;;5068756;28;20079;-69
2021/12/27 07:26:52;;;;;;;58.55;13.57;;;4.60;99.90;;;;;;5068159;28;20036;-68
2021/12/27 07:29:18;;;;;;;55.30;13.60;;;4.60;99.90;;;;;;5068965;28;20024;-69
2021/12/27 07:31:44;;;;;;;55.85;13.65;;;4.60;99.90;;;;;;5069276;28;20411;-68
2021/12/27 07:34:10;;;;;;;44.63;12.00;;;4.60;99.90;;;;;;5069275;28;20078;-69
2021/12/27 07:36:36;;;;;;;64.72;14.52;;;4.60;99.90;;;;;;5071955;28;20081;-68
2021/12/27 07:39:03;;;;;;;51.50;12.98;;;4.60;99.90;;;;;;5073110;28;20037;-68
2021/12/27 07:41:28;;;;;;;47.75;13.75;;;4.60;99.90;;;;;;5072476;28;20056;-68
2021/12/27 07:43:56;;;;;;;39.30;13.18;;;4.60;99.90;;;;;;5073022;28;20065;-68
2021/12/27 07:46:22;;;;;;;71.68;15.23;;;4.60;99.90;;;;;;5072870;28;20420;-68
2021/12/27 07:48:47;;;;;;;49.47;13.65;;;4.70;99.90;;;;;;5073561;28;20036;-68
2021/12/27 07:51:13;;;;;;;50.13;13.07;;;4.60;99.90;;;;;;5072597;28;20105;-69
2021/12/27 07:53:39;;;;;;;86.60;16.77;;;4.60;99.90;;;;;;5072757;28;20044;-68
2021/12/27 07:56:06;;;;;;;46.78;12.20;;;4.60;99.90;;;;;;5072877;28;20028;-72
2021/12/27 07:58:32;;;;;;;67.50;14.48;;;4.60;99.90;;;;;;5071678;28;20071;-68
2021/12/27 08:00:58;;;;;;;87.97;16.48;;;4.70;99.90;;;;;;5071650;28;20059;-68
2021/12/27 08:03:23;;;;;;;78.45;16.38;;;4.70;99.90;;;;;;5072516;28;20040;-68
2021/12/27 08:05:49;;;;;;;46.08;12.63;;;4.60;99.90;;;;;;5073102;28;20520;-68
2021/12/27 08:08:16;;;;;;;54.78;12.88;;;4.70;99.90;;;;;;5072136;28;20404;-68
2021/12/27 08:10:42;;;;;;;50.55;13.57;;;4.70;99.90;;;;;;5072874;28;20032;-68
2021/12/27 08:13:07;;;;;;;80.90;15.88;;;4.70;99.90;;;;;;5070069;28;20028;-69
2021/12/27 08:15:33;;;;;;;62.15;12.90;;;4.80;99.90;;;;;;5072823;28;20438;-68
2021/12/27 08:17:59;;;;;;;47.88;13.40;;;4.80;99.90;;;;;;5072728;28;20488;-68
2021/12/27 08:20:24;;;;;;;53.58;13.75;;;4.80;99.90;;;;;;5071637;28;20044;-68
2021/12/27 08:22:50;;;;;;;62.65;13.80;;;4.80;99.90;;;;;;5067544;28;20117;-68
2021/12/27 08:25:16;;;;;;;92.50;15.80;;;4.90;99.90;;;;;;5071702;28;20021;-69
2021/12/27 08:27:44;;;;;;;53.20;12.95;;;4.90;99.90;;;;;;5072540;28;20442;-68
2021/12/27 08:30:12;;;;;;;52.13;12.93;;;4.90;99.90;;;;;;5071979;28;20102;-69
2021/12/27 08:32:41;;;;;;;61.70;13.52;;;5.00;99.90;;;;;;5072544;28;20376;-70
2021/12/27 08:35:08;;;;;;;74.20;15.40;;;5.00;99.90;;;;;;5072414;28;20039;-68
2021/12/27 08:37:34;;;;;;;57.97;13.38;;;5.00;99.90;;;;;;5072374;28;20369;-67
2021/12/27 08:40:00;;;;;;;54.97;13.63;;;5.00;99.90;;;;;;5072533;28;20127;-67
2021/12/27 08:42:26;;;;;;;68.78;15.80;;;5.00;99.90;;;;;;5070770;28;20060;-66
2021/12/27 08:44:52;;;;;;;61.42;14.85;;;5.00;99.90;;;;;;5072331;28;20025;-72
2021/12/27 08:47:18;;;;;;;56.85;15.00;;;5.10;99.90;;;;;;5071809;28;20029;-66
2021/12/27 08:49:45;;;;;;;69.57;15.38;;;5.00;99.90;;;;;;5071449;28;20032;-69
2021/12/27 08:52:11;;;;;;;64.72;12.65;;;5.10;99.90;;;;;;5072204;28;20531;-67
2021/12/27 08:54:36;;;;;;;49.35;12.85;;;5.10;99.90;;;;;;5072687;28;20043;-67
2021/12/27 08:57:04;;;;;;;62.60;14.80;;;5.10;99.90;;;;;;5071425;28;20045;-69
2021/12/27 08:59:30;;;;;;;64.60;15.27;;;5.10;99.90;;;;;;5070979;28;20132;-68
2021/12/27 09:01:55;;;;;;;47.88;13.60;;;5.10;99.90;;;;;;5072158;28;20131;-66
2021/12/27 09:04:22;;;;;;;54.28;13.40;;;5.20;99.90;;;;;;5070429;28;20500;-67
2021/12/27 09:06:48;;;;;;;65.35;14.15;;;5.20;99.90;;;;;;5072665;28;20685;-69
2021/12/27 09:09:15;;;;;;;71.38;14.15;;;5.20;99.90;;;;;;5072276;28;20032;-66
2021/12/27 09:11:41;;;;;;;47.83;12.45;;;5.20;99.90;;;;;;5071949;28;20423;-67
2021/12/27 09:14:07;;;;;;;55.78;13.77;;;5.30;99.90;;;;;;5071743;28;20044;-67
2021/12/27 09:16:33;;;;;;;59.55;15.00;;;5.30;99.90;;;;;;5068469;28;20405;-70
2021/12/27 09:18:58;;;;;;;55.13;15.15;;;5.30;99.90;;;;;;5071822;28;20033;-66
2021/12/27 09:21:24;;;;;;;47.40;13.50;;;5.30;99.90;;;;;;5070626;28;20039;-67
2021/12/27 09:23:50;;;;;;;50.65;14.32;;;5.30;99.90;;;;;;5071904;28;20044;-66
2021/12/27 09:26:16;;;;;;;76.32;14.05;;;5.30;99.90;;;;;;5071006;28;20063;-66
2021/12/27 09:28:42;;;;;;;52.05;14.23;;;5.40;99.90;;;;;;5071071;28;20068;-66
2021/12/27 09:31:07;;;;;;;69.32;15.63;;;5.50;99.90;;;;;;5068533;28;20028;-71
2021/12/27 09:33:33;;;;;;;70.82;14.85;;;5.50;99.90;;;;;;5067606;28;20098;-66
2021/12/27 09:35:59;;;;;;;63.47;14.68;;;5.60;99.90;;;;;;5069567;28;20044;-67
2021/12/27 09:38:24;;;;;;;50.90;15.38;;;5.60;99.90;;;;;;5067682;28;20028;-67
2021/12/27 09:40:50;;;;;;;68.55;15.70;;;5.60;99.90;;;;;;5069192;28;20455;-70
2021/12/27 09:43:16;;;;;;;51.17;13.30;;;5.70;99.90;;;;;;5066382;28;20029;-66
2021/12/27 09:45:42;;;;;;;54.17;13.38;;;5.80;99.90;;;;;;5062953;28;20035;-68
2021/12/27 09:48:08;;;;;;;49.22;13.40;;;5.80;99.90;;;;;;5066449;28;20083;-68
2021/12/27 09:50:39;;;;;;;45.80;13.27;;;5.80;99.90;;;;;;5061464;28;20489;-66
2021/12/27 09:53:05;;;;;;;45.42;12.93;;;5.90;99.90;;;;;;5068294;28;20036;-69
2021/12/27 09:55:31;;;;;;;59.60;13.80;;;5.90;99.90;;;;;;5068465;28;20086;-66
2021/12/27 09:57:57;;;;;;;54.47;12.57;;;5.80;99.90;;;;;;5069842;28;20185;-67
2021/12/27 10:00:22;;;;;;;60.30;13.05;;;5.80;99.90;;;;;;5068761;28;20420;-68
2021/12/27 10:02:52;;;;;;;53.20;12.57;;;5.90;99.90;;;;;;5069980;28;20044;-66
2021/12/27 10:05:20;;;;;;;64.88;15.25;;;5.80;99.90;;;;;;5069225;28;20021;-67
2021/12/27 10:07:46;;;;;;;48.83;12.70;;;5.90;99.90;;;;;;5069630;28;20030;-71
2021/12/27 10:10:12;;;;;;;44.78;13.77;;;5.90;99.90;;;;;;5067835;28;20488;-69
2021/12/27 10:12:39;;;;;;;42.33;12.07;;;5.90;99.90;;;;;;5068750;28;20037;-72
2021/12/27 10:15:08;;;;;;;46.20;12.90;;;5.90;99.90;;;;;;5066127;28;20074;-69
2021/12/27 10:17:36;;;;;;;40.83;12.00;;;5.90;99.90;;;;;;5068342;28;20480;-67
2021/12/27 10:20:22;;;;;;;54.33;12.95;;;5.90;99.90;;;;;;5070263;28;20439;-67
2021/12/27 10:22:52;;;;;;;47.67;11.23;;;6.00;99.90;;;;;;5065718;28;20036;-66
2021/12/27 10:25:23;;;;;;;39.28;12.00;;;6.00;99.90;;;;;;5069637;28;20032;-71
2021/12/27 10:27:53;;;;;;;77.57;14.20;;;6.00;99.90;;;;;;5069998;28;20487;-66
2021/12/27 10:30:24;;;;;;;37.55;10.00;;;6.00;99.90;;;;;;5069440;28;20039;-66
2021/12/27 10:33:10;;;;;;;35.38;10.10;;;6.10;99.90;;;;;;5069775;28;20040;-67
2021/12/27 10:35:44;;;;;;;50.97;11.95;;;6.20;99.90;;;;;;5061598;28;20039;-67
2021/12/27 10:38:24;;;;;;;36.97;10.30;;;6.20;99.90;;;;;;5066388;28;20048;-67
2021/12/27 10:41:03;;;;;;;53.20;11.98;;;6.30;99.90;;;;;;5066979;28;20029;-69
2021/12/27 10:43:35;;;;;;;46.83;12.25;;;6.20;99.90;;;;;;5068421;28;20025;-67
2021/12/27 10:46:03;;;;;;;35.13;9.35;;;6.20;99.90;;;;;;5059944;28;20503;-72
2021/12/27 10:48:42;;;;;;;45.85;11.25;;;6.30;99.90;;;;;;5066292;28;20026;-67
2021/12/27 10:51:09;;;;;;;38.28;10.20;;;6.20;99.90;;;;;;5067748;28;20032;-67
2021/12/27 10:53:55;;;;;;;50.92;11.63;;;6.30;99.90;;;;;;5069836;28;20496;-69
2021/12/27 10:56:24;;;;;;;33.92;9.27;;;6.30;99.90;;;;;;5069328;28;20120;-67
2021/12/27 10:59:00;;;;;;;39.80;10.50;;;6.40;99.90;;;;;;5068418;28;20178;-66
2021/12/27 11:01:28;;;;;;;36.92;10.57;;;6.40;99.90;;;;;;5068353;28;20033;-69
2021/12/27 11:03:58;;;;;;;29.95;9.50;;;6.50;99.90;;;;;;5067960;28;20427;-68
2021/12/27 11:06:27;;;;;;;33.10;11.27;;;6.50;99.90;;;;;;5069488;28;20037;-70
2021/12/27 11:08:54;;;;;;;37.22;10.13;;;6.50;99.90;;;;;;5068006;28;20044;-66
2021/12/27 11:11:22;;;;;;;37.58;9.60;;;6.50;99.90;;;;;;5072661;28;20086;-69
2021/12/27 11:13:50;;;;;;;34.17;9.05;;;6.60;99.90;;;;;;5073503;28;20079;-65
2021/12/27 11:16:16;;;;;;;34.33;10.15;;;6.60;99.90;;;;;;5068191;28;20032;-70
2021/12/27 11:18:42;;;;;;;36.88;9.88;;;6.60;99.90;;;;;;5065667;28;20048;-68
2021/12/27 11:21:21;;;;;;;38.40;11.02;;;6.60;99.90;;;;;;5069856;28;20111;-65
2021/12/27 11:23:51;;;;;;;26.77;9.95;;;6.50;99.90;;;;;;5073023;28;20483;-67
2021/12/27 11:26:26;;;;;;;32.97;9.98;;;6.60;99.90;;;;;;5074168;28;20033;-66
2021/12/27 11:28:52;;;;;;;35.60;11.80;;;6.50;99.90;;;;;;5070828;28;20150;-65
2021/12/27 11:31:23;;;;;;;34.88;12.23;;;6.50;99.90;;;;;;5071781;28;20032;-66
2021/12/27 11:33:59;;;;;;;26.65;9.40;;;6.50;99.90;;;;;;5068951;28;20051;-68
2021/12/27 11:36:40;;;;;;;28.35;11.60;;;6.50;99.90;;;;;;5072029;28;20090;-66
2021/12/27 11:39:29;;;;;;;24.50;10.10;;;6.60;99.90;;;;;;5072766;28;20039;-65
2021/12/27 11:42:05;;;;;;;24.00;9.32;;;6.60;99.90;;;;;;5069771;28;20395;-66
2021/12/27 11:44:37;;;;;;;23.63;8.85;;;6.60;99.90;;;;;;5070102;28;20047;-65
2021/12/27 11:47:03;;;;;;;25.42;8.88;;;6.60;99.90;;;;;;5071304;28;20032;-66
2021/12/27 11:49:58;;;;;;;22.80;9.35;;;6.60;99.90;;;;;;5072285;28;20036;-70
2021/12/27 11:52:29;;;;;;;21.90;9.93;;;6.60;99.90;;;;;;5069394;28;20151;-67
2021/12/27 11:54:58;;;;;;;25.15;9.60;;;6.60;99.90;;;;;;5070854;28;20395;-66
2021/12/27 11:57:42;;;;;;;20.95;8.95;;;6.60;99.90;;;;;;5073110;28;20043;-69
2021/12/27 12:00:17;;;;;;;20.65;10.07;;;6.60;99.90;;;;;;5068322;28;20029;-69
2021/12/27 12:02:47;;;;;;;17.35;8.60;;;6.60;99.90;;;;;;5069829;28;20564;-69
2021/12/27 12:06:04;;;;;;;20.27;9.65;;;6.70;99.90;;;;;;5067911;28;20183;-67
2021/12/27 12:08:38;;;;;;;19.73;8.68;;;6.70;99.90;;;;;;5032416;28;20136;-68
2021/12/27 12:11:07;;;;;;;15.70;7.72;;;6.70;99.90;;;;;;5067496;28;20090;-69
2021/12/27 12:13:40;;;;;;;17.33;8.52;;;6.70;99.90;;;;;;5067879;28;20127;-69
2021/12/27 12:16:07;;;;;;;16.90;9.13;;;6.70;99.90;;;;;;5069157;28;20040;-69
2021/12/27 12:18:36;;;;;;;18.33;8.15;;;6.80;99.90;;;;;;5066791;28;20037;-69
2021/12/27 12:21:02;;;;;;;16.25;7.70;;;6.80;99.90;;;;;;5066466;28;20044;-67
2021/12/27 12:23:28;;;;;;;20.75;7.80;;;6.80;99.90;;;;;;5066614;28;20121;-69
2021/12/27 12:25:59;;;;;;;14.57;7.40;;;6.80;99.90;;;;;;5069458;28;20124;-69
2021/12/27 12:28:25;;;;;;;15.98;7.97;;;6.80;99.90;;;;;;5068218;28;20115;-69
2021/12/27 12:30:52;;;;;;;13.57;6.57;;;6.90;99.90;;;;;;5064927;28;20032;-69
2021/12/27 12:33:29;;;;;;;12.32;6.18;;;6.90;99.90;;;;;;5065094;28;20033;-68
2021/12/27 12:36:04;;;;;;;13.52;6.55;;;7.00;99.90;;;;;;5070476;28;20040;-68
2021/12/27 12:38:35;;;;;;;14.18;7.18;;;7.10;99.90;;;;;;5060547;28;20056;-69
2021/12/27 12:41:07;;;;;;;15.95;6.80;;;7.10;99.90;;;;;;5066494;28;20048;-68
2021/12/27 12:43:42;;;;;;;11.10;5.47;;;7.10;99.90;;;;;;5067081;28;20500;-68
2021/12/27 12:46:12;;;;;;;11.40;5.55;;;7.10;99.90;;;;;;5065790;28;20120;-69
2021/12/27 12:48:37;;;;;;;8.77;5.00;;;7.10;99.90;;;;;;5065867;28;20407;-68